sensor_id;sensor_type;location;lat;lon;timestamp;temperature;humidity
57552;DHT22;43379;48.160;14.036;2022-10-23T00:00:27;11.40;99.90
57552;DHT22;43379;48.160;14.036;2022-10-23T00:02:53;11.40;99.90
57552;DHT22;43379;48.160;14.036;2022-10-23T00:05:20;11.40;99.90
57552;DHT22;43379;48.160;14.036;2022-10-23T00:07:53;11.30;99.90
57552;DHT22;43379;48.160;14.036;2022-10-23T00:10:19;11.40;99.90
57552;DHT22;43379;48.160;14.036;2022-10-23T00:12:46;11.40;99.90
57552;DHT22;43379;48.160;14.036;2022-10-23T00:15:13;11.40;99.90
57552;DHT22;43379;48.160;14.036;2022-10-23T00:17:39;11.40;99.90
57552;DHT22;43379;48.160;14.036;2022-10-23T00:20:06;11.40;99.90
57552;DHT22;43379;48.160;14.036;2022-10-23T00:22:32;11.40;99.90
57552;DHT22;43379;48.160;14.036;2022-10-23T00:24:58;11.40;99.90
57552;DHT22;43379;48.160;14.036;2022-10-23T00:27:23;11.40;99.90
57552;DHT22;43379;48.160;14.036;2022-10-23T00:29:49;11.40;99.90
57552;DHT22;43379;48.160;14.036;2022-10-23T00:32:15;11.40;99.90
57552;DHT22;43379;48.160;14.036;2022-10-23T00:34:40;11.40;99.90
57552;DHT22;43379;48.160;14.036;2022-10-23T00:37:06;11.30;99.90
57552;DHT22;43379;48.160;14.036;2022-10-23T00:39:32;11.30;99.90
57552;DHT22;43379;48.160;14.036;2022-10-23T00:41:57;11.40;99.90
57552;DHT22;43379;48.160;14.036;2022-10-23T00:46:49;11.40;99.90
57552;DHT22;43379;48.160;14.036;2022-10-23T00:49:14;11.40;99.90
57552;DHT22;43379;48.160;14.036;2022-10-23T00:51:46;11.40;99.90
57552;DHT22;43379;48.160;14.036;2022-10-23T00:54:13;11.40;99.90
57552;DHT22;43379;48.160;14.036;2022-10-23T00:56:42;11.30;99.90
57552;DHT22;43379;48.160;14.036;2022-10-23T00:59:09;11.30;99.90
57552;DHT22;43379;48.160;14.036;2022-10-23T01:01:35;11.40;99.90
57552;DHT22;43379;48.160;14.036;2022-10-23T01:04:04;11.30;99.90
57552;DHT22;43379;48.160;14.036;2022-10-23T01:06:37;11.30;99.90
57552;DHT22;43379;48.160;14.036;2022-10-23T01:09:36;11.30;99.90
57552;DHT22;43379;48.160;14.036;2022-10-23T01:20:30;11.40;99.90
57552;DHT22;43379;48.160;14.036;2022-10-23T01:28:24;11.40;99.90
57552;DHT22;43379;48.160;14.036;2022-10-23T01:30:52;11.30;99.90
57552;DHT22;43379;48.160;14.036;2022-10-23T01:33:42;11.30;99.90
57552;DHT22;43379;48.160;14.036;2022-10-23T01:36:14;11.30;99.90
57552;DHT22;43379;48.160;14.036;2022-10-23T01:38:45;11.30;99.90
57552;DHT22;43379;48.160;14.036;2022-10-23T01:41:29;11.30;99.90
57552;DHT22;43379;48.160;14.036;2022-10-23T01:44:16;11.30;99.90
57552;DHT22;43379;48.160;14.036;2022-10-23T01:46:46;11.30;99.90
57552;DHT22;43379;48.160;14.036;2022-10-23T01:49:13;11.20;99.90
57552;DHT22;43379;48.160;14.036;2022-10-23T01:51:41;11.20;99.90
57552;DHT22;43379;48.160;14.036;2022-10-23T01:54:11;11.20;99.90
57552;DHT22;43379;48.160;14.036;2022-10-23T01:56:41;11.20;99.90
57552;DHT22;43379;48.160;14.036;2022-10-23T01:59:11;11.20;99.90
57552;DHT22;43379;48.160;14.036;2022-10-23T02:01:40;11.10;99.90
57552;DHT22;43379;48.160;14.036;2022-10-23T02:04:09;11.20;99.90
57552;DHT22;43379;48.160;14.036;2022-10-23T02:06:37;11.20;99.90
57552;DHT22;43379;48.160;14.036;2022-10-23T02:09:04;11.30;99.90
57552;DHT22;43379;48.160;14.036;2022-10-23T02:11:36;11.30;99.90
57552;DHT22;43379;48.160;14.036;2022-10-23T02:16:50;11.40;99.90
57552;DHT22;43379;48.160;14.036;2022-10-23T02:19:45;11.20;99.90
57552;DHT22;43379;48.160;14.036;2022-10-23T02:22:29;11.30;99.90
57552;DHT22;43379;48.160;14.036;2022-10-23T02:25:12;11.30;99.90
57552;DHT22;43379;48.160;14.036;2022-10-23T02:27:53;11.30;99.90
57552;DHT22;43379;48.160;14.036;2022-10-23T02:30:20;11.30;99.90
57552;DHT22;43379;48.160;14.036;2022-10-23T02:32:52;11.30;99.90
57552;DHT22;43379;48.160;14.036;2022-10-23T02:35:20;11.40;99.90
57552;DHT22;43379;48.160;14.036;2022-10-23T02:37:59;11.30;99.90
57552;DHT22;43379;48.160;14.036;2022-10-23T02:40:33;11.40;99.90
57552;DHT22;43379;48.160;14.036;2022-10-23T02:43:08;11.40;99.90
57552;DHT22;43379;48.160;14.036;2022-10-23T02:45:52;11.40;99.90
57552;DHT22;43379;48.160;14.036;2022-10-23T02:48:42;11.30;99.90
57552;DHT22;43379;48.160;14.036;2022-10-23T02:51:25;11.30;99.90
57552;DHT22;43379;48.160;14.036;2022-10-23T02:56:57;11.20;99.90
57552;DHT22;43379;48.160;14.036;2022-10-23T02:59:39;11.20;99.90
57552;DHT22;43379;48.160;14.036;2022-10-23T03:02:38;11.20;99.90
57552;DHT22;43379;48.160;14.036;2022-10-23T03:05:07;11.20;99.90
57552;DHT22;43379;48.160;14.036;2022-10-23T03:07:34;11.20;99.90
57552;DHT22;43379;48.160;14.036;2022-10-23T03:10:00;11.20;99.90
57552;DHT22;43379;48.160;14.036;2022-10-23T03:12:26;11.20;99.90
57552;DHT22;43379;48.160;14.036;2022-10-23T03:14:52;11.30;99.90
57552;DHT22;43379;48.160;14.036;2022-10-23T03:17:17;11.30;99.90
57552;DHT22;43379;48.160;14.036;2022-10-23T03:19:43;11.20;99.90
57552;DHT22;43379;48.160;14.036;2022-10-23T03:22:08;11.20;99.90
57552;DHT22;43379;48.160;14.036;2022-10-23T03:24:34;11.10;99.90
57552;DHT22;43379;48.160;14.036;2022-10-23T03:27:00;11.10;99.90
57552;DHT22;43379;48.160;14.036;2022-10-23T03:29:25;11.00;99.90
57552;DHT22;43379;48.160;14.036;2022-10-23T03:31:51;11.00;99.90
57552;DHT22;43379;48.160;14.036;2022-10-23T03:34:17;10.90;99.90
57552;DHT22;43379;48.160;14.036;2022-10-23T03:36:43;10.90;99.90
57552;DHT22;43379;48.160;14.036;2022-10-23T03:39:09;10.80;99.90
57552;DHT22;43379;48.160;14.036;2022-10-23T03:41:35;10.90;99.90
57552;DHT22;43379;48.160;14.036;2022-10-23T03:44:00;10.80;99.90
57552;DHT22;43379;48.160;14.036;2022-10-23T03:46:26;10.80;99.90
57552;DHT22;43379;48.160;14.036;2022-10-23T03:48:52;10.80;99.90
57552;DHT22;43379;48.160;14.036;2022-10-23T03:51:17;10.90;99.90
57552;DHT22;43379;48.160;14.036;2022-10-23T03:53:43;10.90;99.90
57552;DHT22;43379;48.160;14.036;2022-10-23T03:56:09;10.90;99.90
57552;DHT22;43379;48.160;14.036;2022-10-23T03:58:34;10.90;99.90
57552;DHT22;43379;48.160;14.036;2022-10-23T04:01:00;11.00;99.90
57552;DHT22;43379;48.160;14.036;2022-10-23T04:03:26;11.00;99.90
57552;DHT22;43379;48.160;14.036;2022-10-23T04:05:51;11.10;99.90
57552;DHT22;43379;48.160;14.036;2022-10-23T04:08:18;11.10;99.90
57552;DHT22;43379;48.160;14.036;2022-10-23T04:10:43;11.00;99.90
57552;DHT22;43379;48.160;14.036;2022-10-23T04:13:09;11.00;99.90
57552;DHT22;43379;48.160;14.036;2022-10-23T04:15:35;11.00;99.90
57552;DHT22;43379;48.160;14.036;2022-10-23T04:18:00;11.10;99.90
57552;DHT22;43379;48.160;14.036;2022-10-23T04:20:26;11.10;99.90
57552;DHT22;43379;48.160;14.036;2022-10-23T04:22:52;11.10;99.90
57552;DHT22;43379;48.160;14.036;2022-10-23T04:25:17;11.10;99.90
57552;DHT22;43379;48.160;14.036;2022-10-23T04:27:43;11.10;99.90
57552;DHT22;43379;48.160;14.036;2022-10-23T04:30:09;11.00;99.90
57552;DHT22;43379;48.160;14.036;2022-10-23T04:32:35;11.00;99.90
57552;DHT22;43379;48.160;14.036;2022-10-23T04:35:01;11.10;99.90
57552;DHT22;43379;48.160;14.036;2022-10-23T04:37:26;11.00;99.90
57552;DHT22;43379;48.160;14.036;2022-10-23T04:39:52;11.00;99.90
57552;DHT22;43379;48.160;14.036;2022-10-23T04:42:18;11.00;99.90
57552;DHT22;43379;48.160;14.036;2022-10-23T04:44:44;11.10;99.90
57552;DHT22;43379;48.160;14.036;2022-10-23T04:47:10;11.10;99.90
57552;DHT22;43379;48.160;14.036;2022-10-23T04:49:35;11.20;99.90
57552;DHT22;43379;48.160;14.036;2022-10-23T04:52:01;11.10;99.90
57552;DHT22;43379;48.160;14.036;2022-10-23T04:54:27;11.10;99.90
57552;DHT22;43379;48.160;14.036;2022-10-23T04:56:52;11.10;99.90
57552;DHT22;43379;48.160;14.036;2022-10-23T04:59:18;11.10;99.90
57552;DHT22;43379;48.160;14.036;2022-10-23T05:01:44;11.00;99.90
57552;DHT22;43379;48.160;14.036;2022-10-23T05:04:09;10.90;99.90
57552;DHT22;43379;48.160;14.036;2022-10-23T05:06:35;11.00;99.90
57552;DHT22;43379;48.160;14.036;2022-10-23T05:09:01;11.00;99.90
57552;DHT22;43379;48.160;14.036;2022-10-23T05:11:26;11.00;99.90
57552;DHT22;43379;48.160;14.036;2022-10-23T05:13:52;11.10;99.90
57552;DHT22;43379;48.160;14.036;2022-10-23T05:19:24;11.10;99.90
57552;DHT22;43379;48.160;14.036;2022-10-23T05:21:51;11.10;99.90
57552;DHT22;43379;48.160;14.036;2022-10-23T05:24:21;11.20;99.90
57552;DHT22;43379;48.160;14.036;2022-10-23T05:26:47;11.20;99.90
57552;DHT22;43379;48.160;14.036;2022-10-23T05:29:16;11.10;99.90
57552;DHT22;43379;48.160;14.036;2022-10-23T05:31:42;11.10;99.90
57552;DHT22;43379;48.160;14.036;2022-10-23T05:34:09;11.10;99.90
57552;DHT22;43379;48.160;14.036;2022-10-23T05:36:36;11.10;99.90
57552;DHT22;43379;48.160;14.036;2022-10-23T05:39:03;11.00;99.90
57552;DHT22;43379;48.160;14.036;2022-10-23T05:41:29;11.00;99.90
57552;DHT22;43379;48.160;14.036;2022-10-23T05:43:54;11.10;99.90
57552;DHT22;43379;48.160;14.036;2022-10-23T05:46:20;11.10;99.90
57552;DHT22;43379;48.160;14.036;2022-10-23T05:48:51;11.00;99.90
57552;DHT22;43379;48.160;14.036;2022-10-23T05:51:18;11.10;99.90
57552;DHT22;43379;48.160;14.036;2022-10-23T05:53:48;11.00;99.90
57552;DHT22;43379;48.160;14.036;2022-10-23T05:56:14;11.10;99.90
57552;DHT22;43379;48.160;14.036;2022-10-23T05:58:40;11.10;99.90
57552;DHT22;43379;48.160;14.036;2022-10-23T06:01:07;11.10;99.90
57552;DHT22;43379;48.160;14.036;2022-10-23T06:03:34;11.20;99.90
57552;DHT22;43379;48.160;14.036;2022-10-23T06:06:00;11.20;99.90
57552;DHT22;43379;48.160;14.036;2022-10-23T06:08:26;11.20;99.90
57552;DHT22;43379;48.160;14.036;2022-10-23T06:10:52;11.10;99.90
57552;DHT22;43379;48.160;14.036;2022-10-23T06:13:17;11.10;99.90
57552;DHT22;43379;48.160;14.036;2022-10-23T06:15:43;11.10;99.90
57552;DHT22;43379;48.160;14.036;2022-10-23T06:18:08;11.10;99.90
57552;DHT22;43379;48.160;14.036;2022-10-23T06:20:36;11.10;99.90
57552;DHT22;43379;48.160;14.036;2022-10-23T06:23:03;11.10;99.90
57552;DHT22;43379;48.160;14.036;2022-10-23T06:25:28;11.10;99.90
57552;DHT22;43379;48.160;14.036;2022-10-23T06:27:54;11.00;99.90
57552;DHT22;43379;48.160;14.036;2022-10-23T06:30:20;11.10;99.90
57552;DHT22;43379;48.160;14.036;2022-10-23T06:32:45;11.00;99.90
57552;DHT22;43379;48.160;14.036;2022-10-23T06:35:11;11.00;99.90
57552;DHT22;43379;48.160;14.036;2022-10-23T06:37:37;11.00;99.90
57552;DHT22;43379;48.160;14.036;2022-10-23T06:40:03;11.10;99.90
57552;DHT22;43379;48.160;14.036;2022-10-23T06:42:29;11.10;99.90
57552;DHT22;43379;48.160;14.036;2022-10-23T06:44:55;11.20;99.90
57552;DHT22;43379;48.160;14.036;2022-10-23T06:47:21;11.20;99.90
57552;DHT22;43379;48.160;14.036;2022-10-23T06:49:46;11.10;99.90
57552;DHT22;43379;48.160;14.036;2022-10-23T06:52:12;11.20;99.90
57552;DHT22;43379;48.160;14.036;2022-10-23T06:54:38;11.20;99.90
57552;DHT22;43379;48.160;14.036;2022-10-23T06:57:03;11.30;99.90
57552;DHT22;43379;48.160;14.036;2022-10-23T06:59:29;11.40;99.90
57552;DHT22;43379;48.160;14.036;2022-10-23T07:01:55;11.40;99.90
57552;DHT22;43379;48.160;14.036;2022-10-23T07:04:20;11.40;99.90
57552;DHT22;43379;48.160;14.036;2022-10-23T07:06:46;11.50;99.90
57552;DHT22;43379;48.160;14.036;2022-10-23T07:09:11;11.50;99.90
57552;DHT22;43379;48.160;14.036;2022-10-23T07:11:37;11.60;99.90
57552;DHT22;43379;48.160;14.036;2022-10-23T07:14:03;11.60;99.90
57552;DHT22;43379;48.160;14.036;2022-10-23T07:16:29;11.60;99.90
57552;DHT22;43379;48.160;14.036;2022-10-23T07:18:57;11.60;99.90
57552;DHT22;43379;48.160;14.036;2022-10-23T07:21:34;11.60;99.90
57552;DHT22;43379;48.160;14.036;2022-10-23T07:24:01;11.70;99.90
57552;DHT22;43379;48.160;14.036;2022-10-23T07:26:27;11.60;99.90
57552;DHT22;43379;48.160;14.036;2022-10-23T07:28:53;11.60;99.90
57552;DHT22;43379;48.160;14.036;2022-10-23T07:31:23;11.60;99.90
57552;DHT22;43379;48.160;14.036;2022-10-23T07:33:49;11.70;99.90
57552;DHT22;43379;48.160;14.036;2022-10-23T07:36:16;11.60;99.90
57552;DHT22;43379;48.160;14.036;2022-10-23T07:38:42;11.70;99.90
57552;DHT22;43379;48.160;14.036;2022-10-23T07:41:08;11.70;99.90
57552;DHT22;43379;48.160;14.036;2022-10-23T07:43:34;11.80;99.90
57552;DHT22;43379;48.160;14.036;2022-10-23T07:46:00;11.80;99.90
57552;DHT22;43379;48.160;14.036;2022-10-23T07:48:25;11.80;99.90
57552;DHT22;43379;48.160;14.036;2022-10-23T07:50:52;11.80;99.90
57552;DHT22;43379;48.160;14.036;2022-10-23T07:53:23;11.80;99.90
57552;DHT22;43379;48.160;14.036;2022-10-23T07:55:58;11.90;99.90
57552;DHT22;43379;48.160;14.036;2022-10-23T07:58:25;12.00;99.90
57552;DHT22;43379;48.160;14.036;2022-10-23T08:00:57;12.10;99.90
57552;DHT22;43379;48.160;14.036;2022-10-23T08:03:31;12.00;99.90
57552;DHT22;43379;48.160;14.036;2022-10-23T08:05:58;12.10;99.90
57552;DHT22;43379;48.160;14.036;2022-10-23T08:08:25;12.10;99.90
57552;DHT22;43379;48.160;14.036;2022-10-23T08:10:52;12.10;99.90
57552;DHT22;43379;48.160;14.036;2022-10-23T08:13:18;12.20;99.90
57552;DHT22;43379;48.160;14.036;2022-10-23T08:15:48;12.20;99.90
57552;DHT22;43379;48.160;14.036;2022-10-23T08:18:14;12.20;99.90
57552;DHT22;43379;48.160;14.036;2022-10-23T08:20:45;12.30;99.90
57552;DHT22;43379;48.160;14.036;2022-10-23T08:23:12;12.40;99.90
57552;DHT22;43379;48.160;14.036;2022-10-23T08:25:40;12.40;99.90
57552;DHT22;43379;48.160;14.036;2022-10-23T08:28:07;12.20;99.90
57552;DHT22;43379;48.160;14.036;2022-10-23T08:30:33;12.20;99.90
57552;DHT22;43379;48.160;14.036;2022-10-23T08:33:05;12.20;99.90
57552;DHT22;43379;48.160;14.036;2022-10-23T08:35:37;12.10;99.90
57552;DHT22;43379;48.160;14.036;2022-10-23T08:38:04;12.10;99.90
57552;DHT22;43379;48.160;14.036;2022-10-23T08:40:29;12.20;99.90
57552;DHT22;43379;48.160;14.036;2022-10-23T08:51:28;12.20;99.90
57552;DHT22;43379;48.160;14.036;2022-10-23T08:56:34;12.40;99.90
57552;DHT22;43379;48.160;14.036;2022-10-23T08:59:24;12.40;99.90
57552;DHT22;43379;48.160;14.036;2022-10-23T09:02:12;12.50;99.90
57552;DHT22;43379;48.160;14.036;2022-10-23T09:04:41;12.50;99.90
57552;DHT22;43379;48.160;14.036;2022-10-23T09:13:10;12.50;99.90
57552;DHT22;43379;48.160;14.036;2022-10-23T09:15:47;12.50;99.90
57552;DHT22;43379;48.160;14.036;2022-10-23T09:18:15;12.50;99.90
57552;DHT22;43379;48.160;14.036;2022-10-23T09:20:44;12.60;99.90
57552;DHT22;43379;48.160;14.036;2022-10-23T09:23:18;12.70;99.90
57552;DHT22;43379;48.160;14.036;2022-10-23T09:25:46;12.70;99.90
57552;DHT22;43379;48.160;14.036;2022-10-23T09:28:35;12.80;99.90
57552;DHT22;43379;48.160;14.036;2022-10-23T09:31:10;12.90;99.90
57552;DHT22;43379;48.160;14.036;2022-10-23T09:33:36;12.90;99.90
57552;DHT22;43379;48.160;14.036;2022-10-23T09:36:05;12.90;99.90
57552;DHT22;43379;48.160;14.036;2022-10-23T09:46:42;13.00;99.90
57552;DHT22;43379;48.160;14.036;2022-10-23T09:49:22;13.20;99.90
57552;DHT22;43379;48.160;14.036;2022-10-23T09:54:26;13.20;99.90
57552;DHT22;43379;48.160;14.036;2022-10-23T09:56:53;13.30;99.90
57552;DHT22;43379;48.160;14.036;2022-10-23T09:59:24;13.50;99.90
57552;DHT22;43379;48.160;14.036;2022-10-23T10:01:53;13.60;99.90
57552;DHT22;43379;48.160;14.036;2022-10-23T10:04:34;13.60;99.90
57552;DHT22;43379;48.160;14.036;2022-10-23T10:07:02;13.70;99.90
57552;DHT22;43379;48.160;14.036;2022-10-23T10:09:28;13.80;99.90
57552;DHT22;43379;48.160;14.036;2022-10-23T10:11:56;13.90;99.90
57552;DHT22;43379;48.160;14.036;2022-10-23T10:14:41;13.80;99.90
57552;DHT22;43379;48.160;14.036;2022-10-23T10:28:37;14.40;99.90
57552;DHT22;43379;48.160;14.036;2022-10-23T10:31:08;14.50;99.90
57552;DHT22;43379;48.160;14.036;2022-10-23T10:39:00;14.90;99.90
57552;DHT22;43379;48.160;14.036;2022-10-23T10:41:36;15.00;99.90
57552;DHT22;43379;48.160;14.036;2022-10-23T10:47:58;15.30;99.90
57552;DHT22;43379;48.160;14.036;2022-10-23T10:50:45;15.60;99.90
57552;DHT22;43379;48.160;14.036;2022-10-23T10:55:42;16.00;99.90
57552;DHT22;43379;48.160;14.036;2022-10-23T11:00:49;16.20;99.90
57552;DHT22;43379;48.160;14.036;2022-10-23T11:03:37;16.20;99.90
57552;DHT22;43379;48.160;14.036;2022-10-23T11:06:05;16.40;99.90
57552;DHT22;43379;48.160;14.036;2022-10-23T11:08:38;16.60;99.90
57552;DHT22;43379;48.160;14.036;2022-10-23T11:11:34;16.70;99.90
57552;DHT22;43379;48.160;14.036;2022-10-23T11:14:01;16.80;99.90
57552;DHT22;43379;48.160;14.036;2022-10-23T11:16:30;17.00;99.90
57552;DHT22;43379;48.160;14.036;2022-10-23T11:19:25;16.80;99.90
57552;DHT22;43379;48.160;14.036;2022-10-23T11:22:19;16.90;99.90
57552;DHT22;43379;48.160;14.036;2022-10-23T11:30:30;17.10;99.90
57552;DHT22;43379;48.160;14.036;2022-10-23T11:36:03;17.30;99.90
57552;DHT22;43379;48.160;14.036;2022-10-23T11:38:33;17.20;99.90
57552;DHT22;43379;48.160;14.036;2022-10-23T11:41:02;17.20;99.90
57552;DHT22;43379;48.160;14.036;2022-10-23T11:43:45;17.00;99.90
57552;DHT22;43379;48.160;14.036;2022-10-23T11:48:47;17.10;99.90
57552;DHT22;43379;48.160;14.036;2022-10-23T11:51:36;17.10;99.90
57552;DHT22;43379;48.160;14.036;2022-10-23T12:01:46;17.40;99.90
57552;DHT22;43379;48.160;14.036;2022-10-23T12:07:12;17.70;99.90
57552;DHT22;43379;48.160;14.036;2022-10-23T12:09:43;17.90;99.90
57552;DHT22;43379;48.160;14.036;2022-10-23T12:14:40;18.20;99.90
57552;DHT22;43379;48.160;14.036;2022-10-23T12:19:53;18.40;99.90
57552;DHT22;43379;48.160;14.036;2022-10-23T12:22:22;18.50;99.90
57552;DHT22;43379;48.160;14.036;2022-10-23T12:27:30;18.60;99.90
57552;DHT22;43379;48.160;14.036;2022-10-23T12:30:11;18.60;99.90
57552;DHT22;43379;48.160;14.036;2022-10-23T12:35:51;18.70;99.90
57552;DHT22;43379;48.160;14.036;2022-10-23T12:38:23;18.80;99.90
57552;DHT22;43379;48.160;14.036;2022-10-23T12:41:01;18.70;99.90
57552;DHT22;43379;48.160;14.036;2022-10-23T12:43:33;18.70;99.90
57552;DHT22;43379;48.160;14.036;2022-10-23T12:46:06;18.70;99.90
57552;DHT22;43379;48.160;14.036;2022-10-23T12:48:49;18.70;99.90
57552;DHT22;43379;48.160;14.036;2022-10-23T12:51:23;18.70;99.90
57552;DHT22;43379;48.160;14.036;2022-10-23T12:53:49;18.80;99.90
57552;DHT22;43379;48.160;14.036;2022-10-23T12:56:15;18.80;99.90
57552;DHT22;43379;48.160;14.036;2022-10-23T12:58:48;18.70;99.90
57552;DHT22;43379;48.160;14.036;2022-10-23T13:01:32;18.60;99.90
57552;DHT22;43379;48.160;14.036;2022-10-23T13:04:33;18.50;99.90
57552;DHT22;43379;48.160;14.036;2022-10-23T13:07:03;18.50;99.90
57552;DHT22;43379;48.160;14.036;2022-10-23T13:09:35;18.40;99.90
57552;DHT22;43379;48.160;14.036;2022-10-23T13:12:04;18.20;99.90
57552;DHT22;43379;48.160;14.036;2022-10-23T13:14:36;18.10;99.90
57552;DHT22;43379;48.160;14.036;2022-10-23T13:17:08;18.00;99.90
57552;DHT22;43379;48.160;14.036;2022-10-23T13:19:34;17.70;99.90
57552;DHT22;43379;48.160;14.036;2022-10-23T13:22:03;17.70;99.90
57552;DHT22;43379;48.160;14.036;2022-10-23T13:24:30;17.70;99.90
57552;DHT22;43379;48.160;14.036;2022-10-23T13:26:56;17.70;99.90
57552;DHT22;43379;48.160;14.036;2022-10-23T13:29:30;17.70;99.90
57552;DHT22;43379;48.160;14.036;2022-10-23T13:31:56;17.70;99.90
57552;DHT22;43379;48.160;14.036;2022-10-23T13:34:27;17.90;99.90
57552;DHT22;43379;48.160;14.036;2022-10-23T13:36:59;18.00;99.90
57552;DHT22;43379;48.160;14.036;2022-10-23T13:39:30;17.90;99.90
57552;DHT22;43379;48.160;14.036;2022-10-23T13:42:00;17.80;99.90
57552;DHT22;43379;48.160;14.036;2022-10-23T13:44:26;18.00;99.90
57552;DHT22;43379;48.160;14.036;2022-10-23T13:46:52;18.00;99.90
57552;DHT22;43379;48.160;14.036;2022-10-23T13:49:18;18.00;99.90
57552;DHT22;43379;48.160;14.036;2022-10-23T13:51:52;18.00;99.90
57552;DHT22;43379;48.160;14.036;2022-10-23T13:54:23;18.10;99.90
57552;DHT22;43379;48.160;14.036;2022-10-23T13:56:50;18.00;99.90
57552;DHT22;43379;48.160;14.036;2022-10-23T13:59:16;17.90;99.90
57552;DHT22;43379;48.160;14.036;2022-10-23T14:01:43;18.00;99.90
57552;DHT22;43379;48.160;14.036;2022-10-23T14:04:11;18.00;99.90
57552;DHT22;43379;48.160;14.036;2022-10-23T14:06:37;18.00;99.90
57552;DHT22;43379;48.160;14.036;2022-10-23T14:09:05;18.00;99.90
57552;DHT22;43379;48.160;14.036;2022-10-23T14:11:31;18.10;99.90
57552;DHT22;43379;48.160;14.036;2022-10-23T14:13:57;18.00;99.90
57552;DHT22;43379;48.160;14.036;2022-10-23T14:16:24;18.00;99.90
57552;DHT22;43379;48.160;14.036;2022-10-23T14:18:49;17.90;99.90
57552;DHT22;43379;48.160;14.036;2022-10-23T14:21:18;17.80;99.90
57552;DHT22;43379;48.160;14.036;2022-10-23T14:23:47;17.90;99.90
57552;DHT22;43379;48.160;14.036;2022-10-23T14:26:17;17.80;99.90
57552;DHT22;43379;48.160;14.036;2022-10-23T14:28:43;17.80;99.90
57552;DHT22;43379;48.160;14.036;2022-10-23T14:31:14;17.80;99.90
57552;DHT22;43379;48.160;14.036;2022-10-23T14:33:40;17.70;99.90
57552;DHT22;43379;48.160;14.036;2022-10-23T14:36:06;17.70;99.90
57552;DHT22;43379;48.160;14.036;2022-10-23T14:38:32;17.80;99.90
57552;DHT22;43379;48.160;14.036;2022-10-23T14:40:58;17.70;99.90
57552;DHT22;43379;48.160;14.036;2022-10-23T14:43:24;17.70;99.90
57552;DHT22;43379;48.160;14.036;2022-10-23T14:45:50;17.80;99.90
57552;DHT22;43379;48.160;14.036;2022-10-23T14:48:16;17.80;99.90
57552;DHT22;43379;48.160;14.036;2022-10-23T14:50:43;17.90;99.90
57552;DHT22;43379;48.160;14.036;2022-10-23T14:53:10;17.80;99.90
57552;DHT22;43379;48.160;14.036;2022-10-23T14:55:36;17.80;99.90
57552;DHT22;43379;48.160;14.036;2022-10-23T14:58:01;17.80;99.90
57552;DHT22;43379;48.160;14.036;2022-10-23T15:00:27;17.80;99.90
57552;DHT22;43379;48.160;14.036;2022-10-23T15:02:53;17.70;99.90
57552;DHT22;43379;48.160;14.036;2022-10-23T15:05:18;17.70;99.90
57552;DHT22;43379;48.160;14.036;2022-10-23T15:07:44;17.70;99.90
57552;DHT22;43379;48.160;14.036;2022-10-23T15:10:10;17.60;99.90
57552;DHT22;43379;48.160;14.036;2022-10-23T15:12:36;17.60;99.90
57552;DHT22;43379;48.160;14.036;2022-10-23T15:15:04;17.50;99.90
57552;DHT22;43379;48.160;14.036;2022-10-23T15:17:30;17.50;99.90
57552;DHT22;43379;48.160;14.036;2022-10-23T15:19:56;17.50;99.90
57552;DHT22;43379;48.160;14.036;2022-10-23T15:22:22;17.50;99.90
57552;DHT22;43379;48.160;14.036;2022-10-23T15:24:48;17.40;99.90
57552;DHT22;43379;48.160;14.036;2022-10-23T15:27:14;17.40;99.90
57552;DHT22;43379;48.160;14.036;2022-10-23T15:29:40;17.30;99.90
57552;DHT22;43379;48.160;14.036;2022-10-23T15:32:08;17.30;99.90
57552;DHT22;43379;48.160;14.036;2022-10-23T15:34:33;17.20;99.90
57552;DHT22;43379;48.160;14.036;2022-10-23T15:36:59;17.20;99.90
57552;DHT22;43379;48.160;14.036;2022-10-23T15:39:27;17.20;99.90
57552;DHT22;43379;48.160;14.036;2022-10-23T15:41:58;17.20;99.90
57552;DHT22;43379;48.160;14.036;2022-10-23T15:44:27;17.10;99.90
57552;DHT22;43379;48.160;14.036;2022-10-23T15:46:54;17.00;99.90
57552;DHT22;43379;48.160;14.036;2022-10-23T15:49:21;17.00;99.90
57552;DHT22;43379;48.160;14.036;2022-10-23T15:51:47;16.90;99.90
57552;DHT22;43379;48.160;14.036;2022-10-23T15:54:14;16.90;99.90
57552;DHT22;43379;48.160;14.036;2022-10-23T15:56:42;16.80;99.90
57552;DHT22;43379;48.160;14.036;2022-10-23T15:59:07;16.80;99.90
57552;DHT22;43379;48.160;14.036;2022-10-23T16:01:33;16.80;99.90
57552;DHT22;43379;48.160;14.036;2022-10-23T16:03:59;16.70;99.90
57552;DHT22;43379;48.160;14.036;2022-10-23T16:06:24;16.60;99.90
57552;DHT22;43379;48.160;14.036;2022-10-23T16:08:50;16.60;99.90
57552;DHT22;43379;48.160;14.036;2022-10-23T16:11:22;16.50;99.90
57552;DHT22;43379;48.160;14.036;2022-10-23T16:13:48;16.40;99.90
57552;DHT22;43379;48.160;14.036;2022-10-23T16:16:15;16.30;99.90
57552;DHT22;43379;48.160;14.036;2022-10-23T16:18:41;16.20;99.90
57552;DHT22;43379;48.160;14.036;2022-10-23T16:21:21;16.20;99.90
57552;DHT22;43379;48.160;14.036;2022-10-23T16:23:48;16.10;99.90
57552;DHT22;43379;48.160;14.036;2022-10-23T16:26:14;16.00;99.90
57552;DHT22;43379;48.160;14.036;2022-10-23T16:28:40;16.00;99.90
57552;DHT22;43379;48.160;14.036;2022-10-23T16:31:17;16.00;99.90
57552;DHT22;43379;48.160;14.036;2022-10-23T16:33:43;15.90;99.90
57552;DHT22;43379;48.160;14.036;2022-10-23T16:36:09;15.90;99.90
57552;DHT22;43379;48.160;14.036;2022-10-23T16:38:35;15.80;99.90
57552;DHT22;43379;48.160;14.036;2022-10-23T16:41:01;15.90;99.90
57552;DHT22;43379;48.160;14.036;2022-10-23T16:43:27;15.80;99.90
57552;DHT22;43379;48.160;14.036;2022-10-23T16:46:09;15.70;99.90
57552;DHT22;43379;48.160;14.036;2022-10-23T16:48:36;15.70;99.90
57552;DHT22;43379;48.160;14.036;2022-10-23T16:51:06;15.70;99.90
57552;DHT22;43379;48.160;14.036;2022-10-23T16:53:32;15.70;99.90
57552;DHT22;43379;48.160;14.036;2022-10-23T16:55:58;15.60;99.90
57552;DHT22;43379;48.160;14.036;2022-10-23T16:58:25;15.50;99.90
57552;DHT22;43379;48.160;14.036;2022-10-23T17:00:59;15.50;99.90
57552;DHT22;43379;48.160;14.036;2022-10-23T17:03:26;15.50;99.90
57552;DHT22;43379;48.160;14.036;2022-10-23T17:05:52;15.40;99.90
57552;DHT22;43379;48.160;14.036;2022-10-23T17:08:18;15.40;99.90
57552;DHT22;43379;48.160;14.036;2022-10-23T17:10:43;15.40;99.90
57552;DHT22;43379;48.160;14.036;2022-10-23T17:13:09;15.40;99.90
57552;DHT22;43379;48.160;14.036;2022-10-23T17:15:35;15.30;99.90
57552;DHT22;43379;48.160;14.036;2022-10-23T17:18:00;15.20;99.90